sensor_id;sensor_type;location;lat;lon;timestamp;P1;durP1;ratioP1;P2;durP2;ratioP2
45114;SDS011;30877;43.706;10.780;2023-05-07T00:00:06;3.58;;;1.35;;
45114;SDS011;30877;43.706;10.780;2023-05-07T00:02:35;1.45;;;1.20;;
45114;SDS011;30877;43.706;10.780;2023-05-07T00:05:05;2.90;;;1.30;;
45114;SDS011;30877;43.706;10.780;2023-05-07T00:07:35;2.17;;;1.15;;
45114;SDS011;30877;43.706;10.780;2023-05-07T00:10:04;1.33;;;0.90;;
45114;SDS011;30877;43.706;10.780;2023-05-07T00:29:21;2.30;;;1.25;;
45114;SDS011;30877;43.706;10.780;2023-05-07T00:31:50;1.80;;;1.10;;
45114;SDS011;30877;43.706;10.780;2023-05-07T00:34:19;2.47;;;1.67;;
45114;SDS011;30877;43.706;10.780;2023-05-07T00:36:47;2.03;;;1.50;;
45114;SDS011;30877;43.706;10.780;2023-05-07T00:42:08;1.95;;;1.58;;
45114;SDS011;30877;43.706;10.780;2023-05-07T00:44:39;2.22;;;1.50;;
45114;SDS011;30877;43.706;10.780;2023-05-07T00:51:15;3.00;;;1.40;;
45114;SDS011;30877;43.706;10.780;2023-05-07T00:53:44;1.80;;;1.33;;
45114;SDS011;30877;43.706;10.780;2023-05-07T00:56:13;3.97;;;1.38;;
45114;SDS011;30877;43.706;10.780;2023-05-07T00:58:44;4.88;;;1.52;;
45114;SDS011;30877;43.706;10.780;2023-05-07T01:01:14;1.75;;;1.48;;
45114;SDS011;30877;43.706;10.780;2023-05-07T01:03:45;1.88;;;1.50;;
45114;SDS011;30877;43.706;10.780;2023-05-07T01:06:14;1.63;;;1.33;;
45114;SDS011;30877;43.706;10.780;2023-05-07T01:10:28;1.70;;;1.38;;
45114;SDS011;30877;43.706;10.780;2023-05-07T01:12:57;2.22;;;1.40;;
45114;SDS011;30877;43.706;10.780;2023-05-07T01:15:27;2.60;;;1.35;;
45114;SDS011;30877;43.706;10.780;2023-05-07T01:17:58;2.05;;;1.08;;
45114;SDS011;30877;43.706;10.780;2023-05-07T01:20:31;1.92;;;1.40;;
45114;SDS011;30877;43.706;10.780;2023-05-07T01:30:10;4.03;;;1.30;;
45114;SDS011;30877;43.706;10.780;2023-05-07T01:32:41;1.40;;;1.30;;
45114;SDS011;30877;43.706;10.780;2023-05-07T01:35:13;1.60;;;1.20;;
45114;SDS011;30877;43.706;10.780;2023-05-07T01:37:47;2.38;;;1.30;;
45114;SDS011;30877;43.706;10.780;2023-05-07T01:40:15;3.15;;;1.30;;
45114;SDS011;30877;43.706;10.780;2023-05-07T02:37:32;3.22;;;1.10;;
45114;SDS011;30877;43.706;10.780;2023-05-07T02:40:01;2.13;;;1.15;;
45114;SDS011;30877;43.706;10.780;2023-05-07T02:42:30;2.45;;;1.60;;
45114;SDS011;30877;43.706;10.780;2023-05-07T02:44:59;1.88;;;1.20;;
45114;SDS011;30877;43.706;10.780;2023-05-07T02:47:29;2.08;;;1.58;;
45114;SDS011;30877;43.706;10.780;2023-05-07T02:50:01;3.15;;;1.35;;
45114;SDS011;30877;43.706;10.780;2023-05-07T03:51:30;1.83;;;1.25;;
45114;SDS011;30877;43.706;10.780;2023-05-07T03:53:59;1.52;;;1.33;;
45114;SDS011;30877;43.706;10.780;2023-05-07T03:56:37;2.22;;;1.30;;
45114;SDS011;30877;43.706;10.780;2023-05-07T03:59:18;2.35;;;1.50;;
45114;SDS011;30877;43.706;10.780;2023-05-07T04:01:57;2.33;;;1.40;;
45114;SDS011;30877;43.706;10.780;2023-05-07T04:04:30;2.13;;;1.30;;
45114;SDS011;30877;43.706;10.780;2023-05-07T04:07:02;2.42;;;1.65;;
45114;SDS011;30877;43.706;10.780;2023-05-07T05:04:24;2.47;;;1.42;;
45114;SDS011;30877;43.706;10.780;2023-05-07T05:06:53;3.10;;;2.05;;
45114;SDS011;30877;43.706;10.780;2023-05-07T05:09:22;2.53;;;1.70;;
45114;SDS011;30877;43.706;10.780;2023-05-07T05:11:51;2.20;;;1.95;;
45114;SDS011;30877;43.706;10.780;2023-05-07T05:14:19;3.78;;;2.45;;
45114;SDS011;30877;43.706;10.780;2023-05-07T05:16:49;3.95;;;3.55;;
45114;SDS011;30877;43.706;10.780;2023-05-07T05:19:19;4.28;;;3.10;;
45114;SDS011;30877;43.706;10.780;2023-05-07T05:21:51;4.10;;;2.92;;
45114;SDS011;30877;43.706;10.780;2023-05-07T05:24:20;5.40;;;3.33;;
45114;SDS011;30877;43.706;10.780;2023-05-07T05:26:49;3.40;;;3.08;;
45114;SDS011;30877;43.706;10.780;2023-05-07T05:29:22;4.13;;;3.40;;
45114;SDS011;30877;43.706;10.780;2023-05-07T05:31:51;5.22;;;3.17;;
45114;SDS011;30877;43.706;10.780;2023-05-07T05:34:20;3.97;;;3.30;;
45114;SDS011;30877;43.706;10.780;2023-05-07T05:36:51;3.38;;;3.08;;
45114;SDS011;30877;43.706;10.780;2023-05-07T05:39:21;3.92;;;2.50;;
45114;SDS011;30877;43.706;10.780;2023-05-07T05:41:50;4.72;;;2.88;;
45114;SDS011;30877;43.706;10.780;2023-05-07T05:44:19;3.55;;;2.40;;
45114;SDS011;30877;43.706;10.780;2023-05-07T05:46:48;5.22;;;2.45;;
45114;SDS011;30877;43.706;10.780;2023-05-07T05:49:17;7.85;;;5.18;;
45114;SDS011;30877;43.706;10.780;2023-05-07T05:51:47;14.30;;;10.35;;
45114;SDS011;30877;43.706;10.780;2023-05-07T05:54:19;23.60;;;15.88;;
45114;SDS011;30877;43.706;10.780;2023-05-07T05:56:48;35.17;;;22.85;;
45114;SDS011;30877;43.706;10.780;2023-05-07T05:59:18;38.80;;;24.88;;
45114;SDS011;30877;43.706;10.780;2023-05-07T06:01:47;57.28;;;35.78;;
45114;SDS011;30877;43.706;10.780;2023-05-07T06:04:15;76.85;;;46.45;;
45114;SDS011;30877;43.706;10.780;2023-05-07T06:06:44;70.43;;;42.10;;
45114;SDS011;30877;43.706;10.780;2023-05-07T06:09:13;58.05;;;38.22;;
45114;SDS011;30877;43.706;10.780;2023-05-07T06:11:45;46.63;;;30.98;;
45114;SDS011;30877;43.706;10.780;2023-05-07T06:14:14;38.28;;;25.58;;
45114;SDS011;30877;43.706;10.780;2023-05-07T06:19:12;12.90;;;8.07;;
45114;SDS011;30877;43.706;10.780;2023-05-07T06:21:41;13.52;;;8.65;;
45114;SDS011;30877;43.706;10.780;2023-05-07T06:24:10;9.25;;;6.47;;
45114;SDS011;30877;43.706;10.780;2023-05-07T06:26:39;6.22;;;4.40;;
45114;SDS011;30877;43.706;10.780;2023-05-07T06:29:09;6.72;;;4.45;;
45114;SDS011;30877;43.706;10.780;2023-05-07T06:31:40;6.53;;;4.75;;
45114;SDS011;30877;43.706;10.780;2023-05-07T06:34:10;6.55;;;4.68;;
45114;SDS011;30877;43.706;10.780;2023-05-07T06:36:42;5.90;;;4.80;;
45114;SDS011;30877;43.706;10.780;2023-05-07T06:39:24;7.03;;;4.80;;
45114;SDS011;30877;43.706;10.780;2023-05-07T06:41:52;7.50;;;4.82;;
45114;SDS011;30877;43.706;10.780;2023-05-07T06:44:31;5.20;;;4.15;;
45114;SDS011;30877;43.706;10.780;2023-05-07T06:47:11;6.30;;;3.90;;
45114;SDS011;30877;43.706;10.780;2023-05-07T06:49:45;7.97;;;4.20;;
45114;SDS011;30877;43.706;10.780;2023-05-07T06:52:16;6.57;;;3.90;;
45114;SDS011;30877;43.706;10.780;2023-05-07T06:54:47;4.78;;;3.28;;
45114;SDS011;30877;43.706;10.780;2023-05-07T06:57:19;4.20;;;3.00;;
45114;SDS011;30877;43.706;10.780;2023-05-07T06:59:49;7.28;;;3.17;;
45114;SDS011;30877;43.706;10.780;2023-05-07T07:02:19;5.03;;;2.55;;
45114;SDS011;30877;43.706;10.780;2023-05-07T07:04:49;3.17;;;2.45;;
45114;SDS011;30877;43.706;10.780;2023-05-07T07:07:18;2.90;;;2.55;;
45114;SDS011;30877;43.706;10.780;2023-05-07T07:09:49;3.45;;;2.50;;
45114;SDS011;30877;43.706;10.780;2023-05-07T07:12:19;3.25;;;2.35;;
45114;SDS011;30877;43.706;10.780;2023-05-07T07:14:49;4.18;;;2.22;;
45114;SDS011;30877;43.706;10.780;2023-05-07T07:17:18;2.97;;;2.17;;
45114;SDS011;30877;43.706;10.780;2023-05-07T07:19:46;3.20;;;2.30;;
45114;SDS011;30877;43.706;10.780;2023-05-07T07:22:15;2.88;;;2.00;;
45114;SDS011;30877;43.706;10.780;2023-05-07T07:24:44;3.03;;;2.10;;
45114;SDS011;30877;43.706;10.780;2023-05-07T07:27:15;2.55;;;1.80;;
45114;SDS011;30877;43.706;10.780;2023-05-07T07:29:44;2.38;;;1.83;;
45114;SDS011;30877;43.706;10.780;2023-05-07T07:32:14;2.30;;;1.45;;
45114;SDS011;30877;43.706;10.780;2023-05-07T07:34:43;1.85;;;1.50;;
45114;SDS011;30877;43.706;10.780;2023-05-07T07:37:12;2.22;;;1.67;;
45114;SDS011;30877;43.706;10.780;2023-05-07T07:39:41;2.17;;;1.85;;
45114;SDS011;30877;43.706;10.780;2023-05-07T07:42:10;2.60;;;1.83;;
45114;SDS011;30877;43.706;10.780;2023-05-07T07:44:39;3.92;;;1.50;;
45114;SDS011;30877;43.706;10.780;2023-05-07T07:47:09;2.30;;;1.60;;
45114;SDS011;30877;43.706;10.780;2023-05-07T07:49:41;2.85;;;1.63;;
45114;SDS011;30877;43.706;10.780;2023-05-07T07:52:10;2.70;;;1.52;;
45114;SDS011;30877;43.706;10.780;2023-05-07T07:54:40;2.13;;;1.60;;
45114;SDS011;30877;43.706;10.780;2023-05-07T07:57:08;3.10;;;2.10;;
45114;SDS011;30877;43.706;10.780;2023-05-07T07:59:37;3.47;;;1.88;;
45114;SDS011;30877;43.706;10.780;2023-05-07T08:02:08;3.30;;;2.17;;
45114;SDS011;30877;43.706;10.780;2023-05-07T08:04:38;3.72;;;2.63;;
45114;SDS011;30877;43.706;10.780;2023-05-07T08:07:09;4.18;;;2.38;;
45114;SDS011;30877;43.706;10.780;2023-05-07T08:09:41;2.40;;;2.05;;
45114;SDS011;30877;43.706;10.780;2023-05-07T08:12:10;3.38;;;2.40;;
45114;SDS011;30877;43.706;10.780;2023-05-07T08:14:39;4.05;;;2.10;;
45114;SDS011;30877;43.706;10.780;2023-05-07T08:17:08;3.47;;;1.77;;
45114;SDS011;30877;43.706;10.780;2023-05-07T08:19:37;2.33;;;1.60;;
45114;SDS011;30877;43.706;10.780;2023-05-07T08:22:11;3.25;;;1.70;;
45114;SDS011;30877;43.706;10.780;2023-05-07T08:24:40;3.15;;;2.20;;
45114;SDS011;30877;43.706;10.780;2023-05-07T08:27:10;4.40;;;2.10;;
45114;SDS011;30877;43.706;10.780;2023-05-07T08:29:41;5.20;;;1.75;;
45114;SDS011;30877;43.706;10.780;2023-05-07T08:32:10;3.22;;;2.10;;
45114;SDS011;30877;43.706;10.780;2023-05-07T08:34:38;2.22;;;1.58;;
45114;SDS011;30877;43.706;10.780;2023-05-07T08:37:07;1.70;;;1.45;;
45114;SDS011;30877;43.706;10.780;2023-05-07T08:39:38;2.20;;;1.75;;
45114;SDS011;30877;43.706;10.780;2023-05-07T08:42:15;2.72;;;1.45;;
45114;SDS011;30877;43.706;10.780;2023-05-07T08:44:45;2.47;;;1.50;;
45114;SDS011;30877;43.706;10.780;2023-05-07T08:47:16;2.58;;;1.30;;
45114;SDS011;30877;43.706;10.780;2023-05-07T08:49:50;1.83;;;1.02;;
45114;SDS011;30877;43.706;10.780;2023-05-07T08:52:22;2.58;;;1.20;;
45114;SDS011;30877;43.706;10.780;2023-05-07T08:54:52;2.50;;;1.00;;
45114;SDS011;30877;43.706;10.780;2023-05-07T08:57:23;2.60;;;1.20;;
45114;SDS011;30877;43.706;10.780;2023-05-07T08:59:53;2.40;;;1.30;;
45114;SDS011;30877;43.706;10.780;2023-05-07T09:02:22;1.40;;;1.00;;
45114;SDS011;30877;43.706;10.780;2023-05-07T09:04:51;2.17;;;1.60;;
45114;SDS011;30877;43.706;10.780;2023-05-07T09:07:20;2.08;;;1.05;;
45114;SDS011;30877;43.706;10.780;2023-05-07T09:09:50;1.25;;;0.82;;
45114;SDS011;30877;43.706;10.780;2023-05-07T09:12:21;2.13;;;1.25;;
45114;SDS011;30877;43.706;10.780;2023-05-07T09:14:50;2.00;;;1.17;;
45114;SDS011;30877;43.706;10.780;2023-05-07T09:17:18;2.17;;;1.00;;
45114;SDS011;30877;43.706;10.780;2023-05-07T09:19:47;2.40;;;0.90;;
45114;SDS011;30877;43.706;10.780;2023-05-07T09:22:16;1.92;;;1.02;;
45114;SDS011;30877;43.706;10.780;2023-05-07T09:25:05;2.58;;;1.33;;
45114;SDS011;30877;43.706;10.780;2023-05-07T09:27:37;1.63;;;1.13;;
45114;SDS011;30877;43.706;10.780;2023-05-07T09:30:06;1.90;;;1.02;;
45114;SDS011;30877;43.706;10.780;2023-05-07T09:32:36;3.83;;;1.20;;
45114;SDS011;30877;43.706;10.780;2023-05-07T09:35:14;1.60;;;1.05;;
45114;SDS011;30877;43.706;10.780;2023-05-07T09:37:48;2.38;;;1.30;;
45114;SDS011;30877;43.706;10.780;2023-05-07T09:40:20;2.30;;;1.15;;
45114;SDS011;30877;43.706;10.780;2023-05-07T09:42:53;2.42;;;1.02;;
45114;SDS011;30877;43.706;10.780;2023-05-07T09:45:24;1.77;;;1.30;;
45114;SDS011;30877;43.706;10.780;2023-05-07T09:47:54;1.77;;;1.00;;
45114;SDS011;30877;43.706;10.780;2023-05-07T09:50:27;2.53;;;1.20;;
45114;SDS011;30877;43.706;10.780;2023-05-07T09:52:57;1.77;;;1.23;;
45114;SDS011;30877;43.706;10.780;2023-05-07T09:55:26;1.73;;;0.90;;
45114;SDS011;30877;43.706;10.780;2023-05-07T09:57:57;2.63;;;1.08;;
45114;SDS011;30877;43.706;10.780;2023-05-07T10:00:27;2.75;;;0.98;;
45114;SDS011;30877;43.706;10.780;2023-05-07T10:03:04;1.73;;;0.75;;
45114;SDS011;30877;43.706;10.780;2023-05-07T10:06:08;2.17;;;1.75;;
45114;SDS011;30877;43.706;10.780;2023-05-07T10:08:38;1.67;;;1.25;;
45114;SDS011;30877;43.706;10.780;2023-05-07T10:11:07;1.83;;;0.88;;
45114;SDS011;30877;43.706;10.780;2023-05-07T10:13:39;2.15;;;0.90;;
45114;SDS011;30877;43.706;10.780;2023-05-07T10:16:09;2.17;;;0.93;;
45114;SDS011;30877;43.706;10.780;2023-05-07T10:18:42;1.40;;;0.90;;
45114;SDS011;30877;43.706;10.780;2023-05-07T10:21:16;1.00;;;0.90;;
45114;SDS011;30877;43.706;10.780;2023-05-07T10:23:49;1.92;;;1.33;;
45114;SDS011;30877;43.706;10.780;2023-05-07T10:26:20;1.92;;;1.20;;
45114;SDS011;30877;43.706;10.780;2023-05-07T10:28:56;1.38;;;0.80;;
45114;SDS011;30877;43.706;10.780;2023-05-07T10:31:38;1.65;;;1.00;;
45114;SDS011;30877;43.706;10.780;2023-05-07T10:34:19;1.75;;;0.88;;
45114;SDS011;30877;43.706;10.780;2023-05-07T10:36:50;3.33;;;1.45;;
45114;SDS011;30877;43.706;10.780;2023-05-07T10:39:21;4.15;;;1.23;;
45114;SDS011;30877;43.706;10.780;2023-05-07T10:41:51;1.77;;;1.02;;
45114;SDS011;30877;43.706;10.780;2023-05-07T10:44:30;3.10;;;1.10;;
45114;SDS011;30877;43.706;10.780;2023-05-07T10:47:05;4.10;;;1.33;;
45114;SDS011;30877;43.706;10.780;2023-05-07T10:52:41;1.10;;;0.95;;
45114;SDS011;30877;43.706;10.780;2023-05-07T10:55:20;1.77;;;1.15;;
45114;SDS011;30877;43.706;10.780;2023-05-07T10:58:25;2.30;;;0.75;;
45114;SDS011;30877;43.706;10.780;2023-05-07T11:01:17;0.75;;;0.60;;
45114;SDS011;30877;43.706;10.780;2023-05-07T11:04:19;1.20;;;0.68;;
45114;SDS011;30877;43.706;10.780;2023-05-07T11:07:24;2.88;;;1.38;;
45114;SDS011;30877;43.706;10.780;2023-05-07T11:09:59;1.63;;;1.10;;
45114;SDS011;30877;43.706;10.780;2023-05-07T11:12:54;2.78;;;0.85;;
45114;SDS011;30877;43.706;10.780;2023-05-07T11:15:37;1.40;;;0.80;;
45114;SDS011;30877;43.706;10.780;2023-05-07T11:18:18;1.83;;;0.90;;
45114;SDS011;30877;43.706;10.780;2023-05-07T11:20:54;0.88;;;0.80;;
45114;SDS011;30877;43.706;10.780;2023-05-07T11:23:55;2.65;;;0.70;;
45114;SDS011;30877;43.706;10.780;2023-05-07T11:26:44;1.52;;;1.10;;
45114;SDS011;30877;43.706;10.780;2023-05-07T11:29:15;1.80;;;0.80;;
45114;SDS011;30877;43.706;10.780;2023-05-07T11:31:50;1.30;;;0.90;;
45114;SDS011;30877;43.706;10.780;2023-05-07T11:34:24;1.70;;;0.80;;
45114;SDS011;30877;43.706;10.780;2023-05-07T11:36:56;7.55;;;1.23;;
45114;SDS011;30877;43.706;10.780;2023-05-07T11:39:46;2.00;;;0.90;;
45114;SDS011;30877;43.706;10.780;2023-05-07T11:45:01;3.78;;;1.00;;
45114;SDS011;30877;43.706;10.780;2023-05-07T11:47:30;5.05;;;1.17;;
45114;SDS011;30877;43.706;10.780;2023-05-07T11:50:03;2.67;;;1.08;;
45114;SDS011;30877;43.706;10.780;2023-05-07T11:52:35;0.90;;;0.80;;
45114;SDS011;30877;43.706;10.780;2023-05-07T11:55:03;1.00;;;0.95;;
45114;SDS011;30877;43.706;10.780;2023-05-07T11:57:32;2.03;;;1.23;;
45114;SDS011;30877;43.706;10.780;2023-05-07T12:00:02;3.03;;;0.90;;
45114;SDS011;30877;43.706;10.780;2023-05-07T12:05:08;2.00;;;1.13;;
45114;SDS011;30877;43.706;10.780;2023-05-07T12:07:37;2.85;;;1.30;;
45114;SDS011;30877;43.706;10.780;2023-05-07T12:10:06;2.22;;;0.73;;
45114;SDS011;30877;43.706;10.780;2023-05-07T12:12:38;1.30;;;0.75;;
45114;SDS011;30877;43.706;10.780;2023-05-07T12:15:08;1.65;;;0.80;;
45114;SDS011;30877;43.706;10.780;2023-05-07T12:17:37;1.33;;;0.75;;
45114;SDS011;30877;43.706;10.780;2023-05-07T12:20:08;1.23;;;1.05;;
45114;SDS011;30877;43.706;10.780;2023-05-07T12:22:37;2.20;;;0.90;;
45114;SDS011;30877;43.706;10.780;2023-05-07T12:25:06;1.92;;;0.80;;
45114;SDS011;30877;43.706;10.780;2023-05-07T12:27:36;2.08;;;0.82;;
45114;SDS011;30877;43.706;10.780;2023-05-07T12:30:08;1.63;;;0.90;;
45114;SDS011;30877;43.706;10.780;2023-05-07T12:32:38;1.08;;;0.70;;
45114;SDS011;30877;43.706;10.780;2023-05-07T12:35:09;2.05;;;0.70;;
45114;SDS011;30877;43.706;10.780;2023-05-07T12:37:38;1.58;;;0.80;;
45114;SDS011;30877;43.706;10.780;2023-05-07T12:40:07;1.08;;;0.82;;
45114;SDS011;30877;43.706;10.780;2023-05-07T12:42:37;1.60;;;0.70;;
45114;SDS011;30877;43.706;10.780;2023-05-07T12:45:07;0.90;;;0.70;;
45114;SDS011;30877;43.706;10.780;2023-05-07T12:47:37;1.63;;;0.90;;
45114;SDS011;30877;43.706;10.780;2023-05-07T12:50:06;0.70;;;0.50;;
45114;SDS011;30877;43.706;10.780;2023-05-07T12:52:36;0.82;;;0.70;;
45114;SDS011;30877;43.706;10.780;2023-05-07T12:55:05;0.95;;;0.88;;
45114;SDS011;30877;43.706;10.780;2023-05-07T12:57:37;2.33;;;0.73;;
45114;SDS011;30877;43.706;10.780;2023-05-07T13:00:07;1.10;;;0.52;;
45114;SDS011;30877;43.706;10.780;2023-05-07T13:02:37;0.98;;;0.75;;
45114;SDS011;30877;43.706;10.780;2023-05-07T13:05:06;0.75;;;0.75;;
45114;SDS011;30877;43.706;10.780;2023-05-07T13:07:37;1.27;;;0.70;;
45114;SDS011;30877;43.706;10.780;2023-05-07T13:10:05;0.93;;;0.77;;
45114;SDS011;30877;43.706;10.780;2023-05-07T13:12:34;2.35;;;0.70;;
45114;SDS011;30877;43.706;10.780;2023-05-07T13:15:03;1.13;;;0.80;;
45114;SDS011;30877;43.706;10.780;2023-05-07T13:17:31;1.23;;;0.60;;
45114;SDS011;30877;43.706;10.780;2023-05-07T13:19:59;1.00;;;0.50;;
45114;SDS011;30877;43.706;10.780;2023-05-07T13:22:29;2.17;;;0.70;;
45114;SDS011;30877;43.706;10.780;2023-05-07T13:24:57;2.28;;;0.98;;
45114;SDS011;30877;43.706;10.780;2023-05-07T13:27:25;1.95;;;0.80;;
45114;SDS011;30877;43.706;10.780;2023-05-07T13:29:53;1.40;;;0.60;;
45114;SDS011;30877;43.706;10.780;2023-05-07T13:32:21;0.65;;;0.65;;
45114;SDS011;30877;43.706;10.780;2023-05-07T13:34:49;1.60;;;0.60;;
45114;SDS011;30877;43.706;10.780;2023-05-07T13:37:17;0.85;;;0.70;;
45114;SDS011;30877;43.706;10.780;2023-05-07T13:39:47;0.60;;;0.52;;
45114;SDS011;30877;43.706;10.780;2023-05-07T13:42:15;1.23;;;0.50;;
45114;SDS011;30877;43.706;10.780;2023-05-07T13:44:43;0.75;;;0.50;;
45114;SDS011;30877;43.706;10.780;2023-05-07T13:47:11;0.57;;;0.45;;
45114;SDS011;30877;43.706;10.780;2023-05-07T13:49:39;0.85;;;0.55;;
45114;SDS011;30877;43.706;10.780;2023-05-07T13:52:07;0.98;;;0.60;;
45114;SDS011;30877;43.706;10.780;2023-05-07T13:54:35;1.00;;;0.57;;
45114;SDS011;30877;43.706;10.780;2023-05-07T13:57:05;1.25;;;0.77;;
45114;SDS011;30877;43.706;10.780;2023-05-07T13:59:33;1.48;;;0.65;;
45114;SDS011;30877;43.706;10.780;2023-05-07T14:02:01;1.88;;;0.50;;
45114;SDS011;30877;43.706;10.780;2023-05-07T14:04:30;0.70;;;0.70;;
45114;SDS011;30877;43.706;10.780;2023-05-07T14:06:57;1.63;;;0.50;;
45114;SDS011;30877;43.706;10.780;2023-05-07T14:09:25;1.40;;;0.60;;
45114;SDS011;30877;43.706;10.780;2023-05-07T14:11:53;1.20;;;0.50;;
45114;SDS011;30877;43.706;10.780;2023-05-07T14:14:23;1.25;;;0.60;;
45114;SDS011;30877;43.706;10.780;2023-05-07T14:16:51;0.85;;;0.63;;
45114;SDS011;30877;43.706;10.780;2023-05-07T14:19:19;0.70;;;0.50;;
45114;SDS011;30877;43.706;10.780;2023-05-07T14:21:50;0.98;;;0.50;;
45114;SDS011;30877;43.706;10.780;2023-05-07T14:24:18;0.80;;;0.65;;
45114;SDS011;30877;43.706;10.780;2023-05-07T14:27:03;2.05;;;0.60;;
45114;SDS011;30877;43.706;10.780;2023-05-07T14:29:33;1.60;;;0.50;;
45114;SDS011;30877;43.706;10.780;2023-05-07T14:32:02;1.13;;;0.52;;
45114;SDS011;30877;43.706;10.780;2023-05-07T14:34:31;1.15;;;0.70;;
45114;SDS011;30877;43.706;10.780;2023-05-07T14:36:59;0.93;;;0.75;;
45114;SDS011;30877;43.706;10.780;2023-05-07T14:39:27;1.08;;;0.50;;
45114;SDS011;30877;43.706;10.780;2023-05-07T14:41:55;0.70;;;0.50;;
45114;SDS011;30877;43.706;10.780;2023-05-07T14:44:24;1.75;;;0.60;;
45114;SDS011;30877;43.706;10.780;2023-05-07T14:46:53;1.00;;;0.60;;
45114;SDS011;30877;43.706;10.780;2023-05-07T14:49:22;1.65;;;0.80;;
45114;SDS011;30877;43.706;10.780;2023-05-07T14:51:50;0.70;;;0.50;;
45114;SDS011;30877;43.706;10.780;2023-05-07T14:54:18;3.00;;;0.85;;
45114;SDS011;30877;43.706;10.780;2023-05-07T14:56:46;1.48;;;0.70;;
45114;SDS011;30877;43.706;10.780;2023-05-07T14:59:14;2.47;;;0.80;;
45114;SDS011;30877;43.706;10.780;2023-05-07T15:01:45;2.25;;;0.70;;
45114;SDS011;30877;43.706;10.780;2023-05-07T15:04:14;1.52;;;0.60;;
45114;SDS011;30877;43.706;10.780;2023-05-07T15:06:43;0.65;;;0.43;;
45114;SDS011;30877;43.706;10.780;2023-05-07T15:09:11;1.48;;;0.40;;
45114;SDS011;30877;43.706;10.780;2023-05-07T15:11:39;4.65;;;1.27;;
45114;SDS011;30877;43.706;10.780;2023-05-07T15:14:07;1.23;;;0.47;;
45114;SDS011;30877;43.706;10.780;2023-05-07T15:16:35;0.90;;;0.73;;
45114;SDS011;30877;43.706;10.780;2023-05-07T15:19:03;2.70;;;0.70;;
45114;SDS011;30877;43.706;10.780;2023-05-07T15:21:32;2.65;;;0.80;;
45114;SDS011;30877;43.706;10.780;2023-05-07T15:24:01;3.53;;;1.15;;
45114;SDS011;30877;43.706;10.780;2023-05-07T15:26:30;2.67;;;0.90;;
45114;SDS011;30877;43.706;10.780;2023-05-07T15:28:58;2.53;;;0.60;;
45114;SDS011;30877;43.706;10.780;2023-05-07T15:31:26;1.90;;;0.80;;
45114;SDS011;30877;43.706;10.780;2023-05-07T15:33:54;3.17;;;0.70;;
45114;SDS011;30877;43.706;10.780;2023-05-07T15:36:23;2.55;;;0.77;;
45114;SDS011;30877;43.706;10.780;2023-05-07T15:38:53;0.85;;;0.60;;
45114;SDS011;30877;43.706;10.780;2023-05-07T15:41:21;2.03;;;1.02;;
45114;SDS011;30877;43.706;10.780;2023-05-07T15:43:50;3.85;;;1.88;;
45114;SDS011;30877;43.706;10.780;2023-05-07T15:46:20;2.70;;;1.63;;
45114;SDS011;30877;43.706;10.780;2023-05-07T15:48:50;1.00;;;0.80;;
45114;SDS011;30877;43.706;10.780;2023-05-07T15:51:19;0.65;;;0.60;;
45114;SDS011;30877;43.706;10.780;2023-05-07T15:53:49;2.38;;;1.23;;
45114;SDS011;30877;43.706;10.780;2023-05-07T15:56:19;2.45;;;1.40;;
45114;SDS011;30877;43.706;10.780;2023-05-07T15:58:47;2.35;;;1.10;;
45114;SDS011;30877;43.706;10.780;2023-05-07T16:01:15;1.30;;;0.80;;
45114;SDS011;30877;43.706;10.780;2023-05-07T16:03:44;3.13;;;1.08;;
45114;SDS011;30877;43.706;10.780;2023-05-07T16:06:12;3.85;;;1.25;;
45114;SDS011;30877;43.706;10.780;2023-05-07T16:08:40;3.35;;;1.02;;
45114;SDS011;30877;43.706;10.780;2023-05-07T16:11:10;1.25;;;0.80;;
45114;SDS011;30877;43.706;10.780;2023-05-07T16:13:39;3.90;;;0.70;;
45114;SDS011;30877;43.706;10.780;2023-05-07T16:16:07;1.35;;;1.05;;
45114;SDS011;30877;43.706;10.780;2023-05-07T16:18:35;2.08;;;0.70;;
45114;SDS011;30877;43.706;10.780;2023-05-07T16:21:05;1.13;;;0.73;;
45114;SDS011;30877;43.706;10.780;2023-05-07T16:23:33;3.20;;;0.90;;
45114;SDS011;30877;43.706;10.780;2023-05-07T16:26:01;1.90;;;1.40;;
45114;SDS011;30877;43.706;10.780;2023-05-07T16:28:30;1.85;;;1.30;;
45114;SDS011;30877;43.706;10.780;2023-05-07T16:31:00;2.42;;;1.23;;
45114;SDS011;30877;43.706;10.780;2023-05-07T16:33:28;1.80;;;0.98;;
45114;SDS011;30877;43.706;10.780;2023-05-07T16:35:56;2.67;;;1.30;;
45114;SDS011;30877;43.706;10.780;2023-05-07T16:38:24;2.97;;;1.75;;
45114;SDS011;30877;43.706;10.780;2023-05-07T16:40:54;3.25;;;2.47;;
45114;SDS011;30877;43.706;10.780;2023-05-07T16:43:22;1.67;;;1.20;;
45114;SDS011;30877;43.706;10.780;2023-05-07T16:45:50;2.22;;;1.10;;
45114;SDS011;30877;43.706;10.780;2023-05-07T16:48:20;3.50;;;0.90;;
45114;SDS011;30877;43.706;10.780;2023-05-07T16:50:48;2.28;;;0.80;;
45114;SDS011;30877;43.706;10.780;2023-05-07T16:53:16;1.23;;;1.00;;
45114;SDS011;30877;43.706;10.780;2023-05-07T16:55:45;2.25;;;1.08;;
45114;SDS011;30877;43.706;10.780;2023-05-07T16:58:13;0.85;;;0.68;;
45114;SDS011;30877;43.706;10.780;2023-05-07T17:00:41;2.65;;;0.70;;
45114;SDS011;30877;43.706;10.780;2023-05-07T17:03:17;1.20;;;0.80;;
45114;SDS011;30877;43.706;10.780;2023-05-07T17:05:47;1.35;;;0.95;;
45114;SDS011;30877;43.706;10.780;2023-05-07T17:08:16;1.40;;;1.00;;
45114;SDS011;30877;43.706;10.780;2023-05-07T17:10:44;3.40;;;1.17;;
45114;SDS011;30877;43.706;10.780;2023-05-07T17:13:13;0.68;;;0.57;;
45114;SDS011;30877;43.706;10.780;2023-05-07T17:15:42;2.15;;;1.30;;
45114;SDS011;30877;43.706;10.780;2023-05-07T17:18:12;1.80;;;0.90;;
45114;SDS011;30877;43.706;10.780;2023-05-07T17:20:41;1.52;;;1.08;;
45114;SDS011;30877;43.706;10.780;2023-05-07T17:23:12;1.80;;;1.10;;
45114;SDS011;30877;43.706;10.780;2023-05-07T17:25:41;1.23;;;0.93;;
45114;SDS011;30877;43.706;10.780;2023-05-07T17:28:12;2.17;;;1.13;;
45114;SDS011;30877;43.706;10.780;2023-05-07T17:30:41;1.42;;;1.02;;
45114;SDS011;30877;43.706;10.780;2023-05-07T17:33:09;1.70;;;1.10;;
45114;SDS011;30877;43.706;10.780;2023-05-07T17:35:47;2.85;;;1.20;;
45114;SDS011;30877;43.706;10.780;2023-05-07T17:38:17;1.27;;;0.90;;
45114;SDS011;30877;43.706;10.780;2023-05-07T17:40:46;1.63;;;0.90;;
45114;SDS011;30877;43.706;10.780;2023-05-07T17:43:14;1.40;;;0.85;;
45114;SDS011;30877;43.706;10.780;2023-05-07T17:45:43;1.27;;;1.17;;
45114;SDS011;30877;43.706;10.780;2023-05-07T17:48:13;1.20;;;0.90;;
45114;SDS011;30877;43.706;10.780;2023-05-07T17:50:41;2.47;;;1.13;;
45114;SDS011;30877;43.706;10.780;2023-05-07T17:53:11;1.75;;;1.20;;
45114;SDS011;30877;43.706;10.780;2023-05-07T17:55:43;2.20;;;1.02;;
45114;SDS011;30877;43.706;10.780;2023-05-07T17:58:12;1.30;;;1.02;;
45114;SDS011;30877;43.706;10.780;2023-05-07T18:00:41;1.52;;;0.82;;
45114;SDS011;30877;43.706;10.780;2023-05-07T18:03:09;1.23;;;0.80;;
45114;SDS011;30877;43.706;10.780;2023-05-07T18:05:41;0.95;;;0.75;;
45114;SDS011;30877;43.706;10.780;2023-05-07T18:08:10;1.73;;;1.10;;
45114;SDS011;30877;43.706;10.780;2023-05-07T18:10:39;1.00;;;0.90;;
45114;SDS011;30877;43.706;10.780;2023-05-07T18:13:09;3.08;;;1.10;;
45114;SDS011;30877;43.706;10.780;2023-05-07T18:15:37;1.48;;;0.98;;
45114;SDS011;30877;43.706;10.780;2023-05-07T18:18:07;1.92;;;0.98;;
45114;SDS011;30877;43.706;10.780;2023-05-07T18:20:36;1.48;;;1.20;;
45114;SDS011;30877;43.706;10.780;2023-05-07T18:23:11;2.20;;;1.05;;
45114;SDS011;30877;43.706;10.780;2023-05-07T18:25:39;5.22;;;1.40;;